Time;durP1;ratioP1;P1;durP2;ratioP2;P2;SDS_P1;SDS_P2;PMS_P1;PMS_P2;Temp;Humidity;BMP_temperature;BMP_pressure;BME280_temperature;BME280_humidity;BME280_pressure;Samples;Min_cycle;Max_cycle;Signal;HPM_P1;HPM_P2
2023/12/09 00:02:08;;;;;;;23.50;10.33;;;8.80;99.90;;;;;;5014822;28;20630;-83
2023/12/09 00:04:34;;;;;;;20.27;10.50;;;8.70;99.90;;;;;;5014181;28;20213;-82
2023/12/09 00:07:00;;;;;;;24.83;10.77;;;8.80;99.90;;;;;;5030985;28;20645;-82
2023/12/09 00:09:25;;;;;;;28.80;10.00;;;8.80;99.90;;;;;;5014884;28;20681;-81
2023/12/09 00:11:51;;;;;;;24.17;10.43;;;8.90;99.90;;;;;;5014595;28;20489;-82
2023/12/09 00:14:16;;;;;;;28.73;11.07;;;8.90;99.90;;;;;;5030929;28;20205;-83
2023/12/09 00:16:42;;;;;;;23.53;10.33;;;8.90;99.90;;;;;;5015216;28;20170;-83
2023/12/09 00:19:09;;;;;;;26.90;11.07;;;8.80;99.90;;;;;;5014788;28;20189;-84
2023/12/09 00:21:36;;;;;;;24.10;10.93;;;8.80;99.90;;;;;;5014965;28;20228;-83
2023/12/09 00:24:02;;;;;;;26.73;11.37;;;8.70;99.90;;;;;;5014601;28;20186;-83
2023/12/09 00:26:27;;;;;;;23.33;10.07;;;8.70;99.90;;;;;;5013804;28;20313;-83
2023/12/09 00:28:53;;;;;;;23.97;9.67;;;8.70;99.90;;;;;;5013748;28;20225;-82
2023/12/09 00:31:19;;;;;;;29.43;12.07;;;8.70;99.90;;;;;;5013852;28;20178;-82
2023/12/09 00:33:44;;;;;;;27.37;11.10;;;8.70;99.90;;;;;;5013814;28;20182;-82
2023/12/09 00:36:10;;;;;;;28.53;10.97;;;8.70;99.90;;;;;;5013462;28;20623;-82
2023/12/09 00:38:35;;;;;;;25.47;10.27;;;8.70;99.90;;;;;;5013088;28;20666;-81
2023/12/09 00:41:01;;;;;;;21.30;10.97;;;8.70;99.90;;;;;;5013433;28;20252;-82
2023/12/09 00:43:27;;;;;;;22.73;9.83;;;8.70;99.90;;;;;;5013583;28;20178;-81
2023/12/09 00:45:53;;;;;;;25.53;10.47;;;8.70;99.90;;;;;;5014013;28;20646;-82
2023/12/09 00:48:18;;;;;;;24.10;10.57;;;8.70;99.90;;;;;;5013668;28;20263;-83
2023/12/09 00:50:44;;;;;;;25.07;9.80;;;8.60;99.90;;;;;;5013546;28;20532;-81
2023/12/09 00:53:10;;;;;;;26.47;10.53;;;8.60;99.90;;;;;;5013125;28;20182;-81
2023/12/09 00:55:35;;;;;;;24.67;11.57;;;8.60;99.90;;;;;;5013794;28;20194;-82
2023/12/09 00:58:01;;;;;;;24.63;10.97;;;8.60;99.90;;;;;;5015276;28;20182;-83
2023/12/09 01:00:27;;;;;;;22.90;10.57;;;8.60;99.90;;;;;;5013034;28;20183;-82
2023/12/09 01:02:52;;;;;;;29.87;11.40;;;8.60;99.90;;;;;;5014025;28;20202;-83
2023/12/09 01:05:18;;;;;;;24.53;11.40;;;8.70;99.90;;;;;;5013065;28;20308;-81
2023/12/09 01:07:44;;;;;;;30.83;11.13;;;8.60;99.90;;;;;;5013451;28;20558;-82
2023/12/09 01:10:10;;;;;;;29.57;11.30;;;8.60;99.90;;;;;;5012246;28;20677;-82
2023/12/09 01:12:35;;;;;;;28.37;11.07;;;8.50;99.90;;;;;;5013986;28;20624;-83
2023/12/09 01:15:01;;;;;;;23.47;11.40;;;8.50;99.90;;;;;;5012946;28;20261;-82
2023/12/09 01:17:27;;;;;;;24.13;11.13;;;8.50;99.90;;;;;;5013587;28;20174;-82
2023/12/09 01:19:52;;;;;;;28.30;13.97;;;8.50;99.90;;;;;;5013603;28;20182;-82
2023/12/09 01:22:18;;;;;;;22.40;11.60;;;8.50;99.90;;;;;;5013466;28;20181;-80
2023/12/09 01:24:44;;;;;;;28.00;11.80;;;8.50;99.90;;;;;;5012646;28;20685;-81
2023/12/09 01:27:09;;;;;;;23.00;11.03;;;8.50;99.90;;;;;;5012917;28;20181;-82
2023/12/09 01:29:36;;;;;;;28.60;11.27;;;8.50;99.90;;;;;;5013191;28;20617;-82
2023/12/09 01:32:02;;;;;;;28.30;11.13;;;8.50;99.90;;;;;;5012744;28;20270;-82
2023/12/09 01:34:28;;;;;;;28.27;10.73;;;8.50;99.90;;;;;;5013751;28;20269;-82
2023/12/09 01:36:54;;;;;;;27.57;11.70;;;8.50;99.90;;;;;;5013065;28;20189;-82
2023/12/09 01:39:20;;;;;;;26.57;11.73;;;8.50;99.90;;;;;;5011843;28;20691;-81
2023/12/09 01:41:46;;;;;;;22.50;9.57;;;8.50;99.90;;;;;;5013642;28;20178;-83
2023/12/09 01:44:11;;;;;;;23.53;10.07;;;8.60;99.90;;;;;;5013439;28;20567;-82
2023/12/09 01:46:38;;;;;;;27.20;11.00;;;8.70;99.90;;;;;;5011957;28;20670;-82
2023/12/09 01:49:05;;;;;;;22.50;10.77;;;8.60;99.90;;;;;;5012833;28;20174;-83
2023/12/09 01:51:34;;;;;;;22.90;10.73;;;8.50;99.90;;;;;;5013763;28;20638;-82
2023/12/09 01:54:00;;;;;;;22.27;9.93;;;8.50;99.90;;;;;;5013060;28;20634;-84
2023/12/09 01:56:25;;;;;;;27.27;10.33;;;8.50;99.90;;;;;;5028466;28;20186;-82
2023/12/09 01:58:51;;;;;;;28.73;11.63;;;8.40;99.90;;;;;;5013242;28;20178;-82
2023/12/09 02:01:17;;;;;;;23.20;10.97;;;8.50;99.90;;;;;;5012729;28;20179;-82
2023/12/09 02:03:43;;;;;;;27.57;10.90;;;8.40;99.90;;;;;;5012748;28;20560;-81
2023/12/09 02:06:09;;;;;;;20.63;9.73;;;8.40;99.90;;;;;;5012154;28;20213;-82
2023/12/09 02:08:35;;;;;;;26.10;10.73;;;8.40;99.90;;;;;;5012646;28;20194;-82
2023/12/09 02:11:24;;;;;;;27.90;10.63;;;8.50;99.90;;;;;;5012934;28;20623;-81
2023/12/09 02:14:10;;;;;;;21.77;10.13;;;8.40;99.90;;;;;;5014201;28;20178;-81
2023/12/09 02:17:19;;;;;;;25.67;10.00;;;8.30;99.90;;;;;;5012466;28;20642;-81
2023/12/09 02:19:44;;;;;;;23.87;9.73;;;8.40;99.90;;;;;;4982994;28;20226;-82
2023/12/09 02:22:10;;;;;;;27.63;9.87;;;8.30;99.90;;;;;;5011623;28;20604;-82
2023/12/09 02:24:36;;;;;;;23.87;8.73;;;8.30;99.90;;;;;;5012105;28;20631;-81
2023/12/09 02:27:12;;;;;;;18.43;8.77;;;8.30;99.90;;;;;;5012199;28;20264;-83
2023/12/09 02:30:08;;;;;;;20.57;8.93;;;8.30;99.90;;;;;;5012214;28;20188;-82
2023/12/09 02:32:35;;;;;;;21.77;9.33;;;8.30;99.90;;;;;;5011998;28;20175;-82
2023/12/09 02:35:03;;;;;;;22.60;8.60;;;8.30;99.90;;;;;;5013222;28;20170;-83
2023/12/09 02:37:30;;;;;;;17.57;8.23;;;8.30;99.90;;;;;;5011951;28;20686;-82
2023/12/09 02:39:58;;;;;;;20.90;8.87;;;8.30;99.90;;;;;;5029083;28;20170;-82
2023/12/09 02:42:25;;;;;;;23.73;8.70;;;8.30;99.90;;;;;;5011234;28;20208;-81
2023/12/09 02:44:51;;;;;;;23.23;9.70;;;8.30;99.90;;;;;;5011973;28;20232;-82
2023/12/09 02:47:16;;;;;;;26.10;9.83;;;8.30;99.90;;;;;;5011336;28;20170;-82
2023/12/09 02:49:42;;;;;;;27.53;11.87;;;8.30;99.90;;;;;;5012075;28;20537;-83
2023/12/09 02:52:09;;;;;;;24.30;8.10;;;8.30;99.90;;;;;;5012417;28;20583;-82
2023/12/09 02:54:35;;;;;;;19.03;7.80;;;8.40;99.90;;;;;;5012179;28;20220;-82
2023/12/09 02:57:00;;;;;;;21.80;7.53;;;8.40;99.90;;;;;;5012562;28;20193;-81
2023/12/09 02:59:28;;;;;;;21.87;8.17;;;8.40;99.90;;;;;;5011530;28;20656;-82
2023/12/09 03:01:54;;;;;;;22.87;7.63;;;8.40;99.90;;;;;;5011383;28;20512;-82
2023/12/09 03:04:20;;;;;;;19.00;8.17;;;8.30;99.90;;;;;;5027882;28;20177;-82
2023/12/09 03:06:46;;;;;;;22.93;8.10;;;8.30;99.90;;;;;;5028522;28;20182;-83
2023/12/09 03:09:11;;;;;;;23.13;8.87;;;8.30;99.90;;;;;;5011424;28;20217;-82
2023/12/09 03:11:37;;;;;;;21.57;8.13;;;8.30;99.90;;;;;;5013602;28;20175;-84
2023/12/09 03:14:03;;;;;;;21.07;7.70;;;8.30;99.90;;;;;;5028603;28;20170;-82
2023/12/09 03:16:28;;;;;;;18.93;7.70;;;8.30;99.90;;;;;;5011778;28;20653;-83
2023/12/09 03:18:54;;;;;;;29.93;9.03;;;8.30;99.90;;;;;;5011355;28;20182;-82
2023/12/09 03:21:20;;;;;;;19.00;8.47;;;8.30;99.90;;;;;;5010722;28;20539;-82
2023/12/09 03:23:46;;;;;;;20.47;7.97;;;8.30;99.90;;;;;;5012357;28;20192;-81
2023/12/09 03:26:18;;;;;;;25.33;9.10;;;8.30;99.90;;;;;;5028116;28;20257;-82
2023/12/09 03:28:45;;;;;;;23.33;8.77;;;8.30;99.90;;;;;;5011103;28;20171;-82
2023/12/09 03:31:15;;;;;;;19.03;8.87;;;8.30;99.90;;;;;;5013100;28;20174;-81
2023/12/09 03:33:42;;;;;;;20.17;8.57;;;8.30;99.90;;;;;;5011141;28;20174;-81
2023/12/09 03:36:08;;;;;;;27.70;8.70;;;8.30;99.90;;;;;;5011351;28;20177;-82
2023/12/09 03:38:34;;;;;;;21.47;9.10;;;8.30;99.90;;;;;;5027856;28;20174;-81
2023/12/09 03:41:03;;;;;;;27.70;10.33;;;8.20;99.90;;;;;;5011727;28;20260;-82
2023/12/09 03:43:28;;;;;;;24.57;9.53;;;8.20;99.90;;;;;;5011904;28;20227;-82
2023/12/09 03:45:54;;;;;;;25.30;10.17;;;8.30;99.90;;;;;;5011034;28;20213;-81
2023/12/09 03:48:19;;;;;;;23.67;9.30;;;8.30;99.90;;;;;;5011908;28;20166;-82
2023/12/09 03:50:45;;;;;;;23.43;9.97;;;8.20;99.90;;;;;;5012224;28;20178;-82
2023/12/09 03:53:11;;;;;;;27.80;10.20;;;8.20;99.90;;;;;;5028221;28;20174;-82
2023/12/09 03:55:36;;;;;;;21.90;10.20;;;8.30;99.90;;;;;;5010442;28;20737;-81
2023/12/09 03:58:04;;;;;;;28.73;11.17;;;8.30;99.90;;;;;;5011746;28;20174;-82
2023/12/09 04:00:30;;;;;;;24.10;11.13;;;8.30;99.90;;;;;;5026948;28;20182;-82
2023/12/09 04:02:56;;;;;;;30.83;10.63;;;8.30;99.90;;;;;;5011056;28;20205;-83
2023/12/09 04:05:21;;;;;;;26.73;10.67;;;8.30;99.90;;;;;;5011464;28;20206;-82
2023/12/09 04:07:47;;;;;;;23.20;10.23;;;8.30;99.90;;;;;;5010386;28;20224;-82
2023/12/09 04:10:13;;;;;;;22.23;9.87;;;8.30;99.90;;;;;;5011101;28;20190;-82
2023/12/09 04:12:40;;;;;;;26.00;9.77;;;8.30;99.90;;;;;;5028066;28;20174;-82
2023/12/09 04:15:07;;;;;;;20.10;10.23;;;8.30;99.90;;;;;;5011802;28;20163;-83
2023/12/09 04:17:33;;;;;;;21.03;8.93;;;8.30;99.90;;;;;;5027123;28;20266;-82
2023/12/09 04:19:58;;;;;;;25.07;9.93;;;8.40;99.90;;;;;;5027593;28;20166;-82
2023/12/09 04:22:24;;;;;;;19.67;9.30;;;8.40;99.90;;;;;;5010377;28;20591;-82
2023/12/09 04:24:50;;;;;;;27.67;9.80;;;8.40;99.90;;;;;;5026777;28;20682;-83
2023/12/09 04:27:16;;;;;;;18.60;8.70;;;8.30;99.90;;;;;;5010396;28;20269;-82
2023/12/09 04:29:42;;;;;;;24.50;9.67;;;8.40;99.90;;;;;;5012344;28;20163;-81
2023/12/09 04:32:08;;;;;;;17.90;8.50;;;8.40;99.90;;;;;;5027353;28;20648;-83
2023/12/09 04:34:35;;;;;;;26.43;9.33;;;8.40;99.90;;;;;;5030180;28;20181;-82
2023/12/09 04:37:01;;;;;;;22.63;9.50;;;8.50;99.90;;;;;;5013592;28;20293;-81
2023/12/09 04:39:27;;;;;;;23.20;9.30;;;8.50;99.90;;;;;;5014344;28;20655;-81
2023/12/09 04:41:53;;;;;;;25.37;11.00;;;8.50;99.90;;;;;;5030924;28;20201;-81
2023/12/09 04:44:19;;;;;;;21.20;10.07;;;8.50;99.90;;;;;;5015625;28;20594;-81
2023/12/09 04:46:45;;;;;;;23.03;8.80;;;8.60;99.90;;;;;;5014392;28;20247;-82
2023/12/09 04:49:10;;;;;;;19.50;8.13;;;8.60;99.90;;;;;;5033702;28;20557;-82
2023/12/09 04:51:36;;;;;;;25.70;8.20;;;8.60;99.90;;;;;;5034056;28;20178;-82
2023/12/09 04:54:02;;;;;;;26.23;8.47;;;8.60;99.90;;;;;;5033833;28;20177;-83
2023/12/09 04:56:29;;;;;;;20.50;8.03;;;8.70;99.90;;;;;;5033703;28;20261;-82
2023/12/09 04:58:55;;;;;;;14.30;7.40;;;8.60;99.90;;;;;;5035235;28;20622;-82
2023/12/09 05:01:21;;;;;;;21.13;7.40;;;8.60;99.90;;;;;;5033153;28;20177;-82
2023/12/09 05:03:47;;;;;;;21.63;8.00;;;8.60;99.90;;;;;;5034225;28;20196;-81
2023/12/09 05:06:12;;;;;;;21.93;6.97;;;8.60;99.90;;;;;;5033060;28;20622;-81
2023/12/09 05:08:41;;;;;;;24.93;7.73;;;8.60;99.90;;;;;;5033122;28;20228;-82
2023/12/09 05:11:08;;;;;;;21.87;7.80;;;8.60;99.90;;;;;;5032850;28;20196;-82
2023/12/09 05:13:34;;;;;;;20.53;7.13;;;8.70;99.90;;;;;;5033693;28;20683;-82
2023/12/09 05:16:00;;;;;;;19.10;7.23;;;8.70;99.90;;;;;;5034617;28;20170;-80
2023/12/09 05:18:25;;;;;;;15.97;6.80;;;8.70;99.90;;;;;;5033444;28;20261;-81
2023/12/09 05:20:51;;;;;;;19.63;6.47;;;8.80;99.90;;;;;;5033257;28;20656;-80
2023/12/09 05:23:17;;;;;;;24.53;7.40;;;8.80;99.90;;;;;;5032888;28;20182;-81
2023/12/09 05:25:46;;;;;;;21.97;7.37;;;8.70;99.90;;;;;;5034914;28;20724;-81
2023/12/09 05:28:11;;;;;;;22.67;6.90;;;8.70;99.90;;;;;;5034951;28;20169;-81
2023/12/09 05:30:37;;;;;;;20.13;6.10;;;8.70;99.90;;;;;;5033010;28;20664;-82
2023/12/09 05:33:03;;;;;;;18.30;6.33;;;8.80;99.90;;;;;;5032656;28;20870;-82
2023/12/09 05:35:29;;;;;;;15.63;7.37;;;8.80;99.90;;;;;;5033129;28;20185;-82
2023/12/09 05:37:55;;;;;;;17.03;6.00;;;8.90;99.90;;;;;;5033020;28;20189;-82
2023/12/09 05:40:20;;;;;;;16.17;5.90;;;8.80;99.90;;;;;;5033172;28;20231;-82
2023/12/09 05:42:46;;;;;;;13.77;6.47;;;8.80;99.90;;;;;;5033349;28;20178;-82
2023/12/09 05:45:12;;;;;;;23.47;6.00;;;8.90;99.90;;;;;;5032632;28;20241;-81
2023/12/09 05:47:37;;;;;;;16.07;5.70;;;8.90;99.90;;;;;;5035241;28;20181;-81
2023/12/09 05:50:04;;;;;;;14.60;5.17;;;8.90;99.90;;;;;;5033310;28;20181;-81
2023/12/09 05:52:29;;;;;;;18.27;5.70;;;8.90;99.90;;;;;;5032599;28;20177;-81
2023/12/09 05:54:55;;;;;;;20.03;5.63;;;8.90;99.90;;;;;;5031835;28;20199;-83
2023/12/09 05:57:20;;;;;;;14.03;4.93;;;9.00;99.90;;;;;;5032641;28;20657;-82
2023/12/09 05:59:46;;;;;;;14.37;5.97;;;9.00;99.90;;;;;;5032710;28;20176;-82
2023/12/09 06:02:12;;;;;;;18.23;4.90;;;9.10;99.90;;;;;;5032703;28;20169;-84
2023/12/09 06:04:38;;;;;;;22.57;5.07;;;9.20;99.90;;;;;;5032733;28;20561;-82
2023/12/09 06:07:04;;;;;;;13.93;5.13;;;9.10;99.90;;;;;;5032573;28;20649;-81
2023/12/09 06:09:29;;;;;;;17.70;4.70;;;9.10;99.90;;;;;;5032223;28;20266;-82
2023/12/09 06:11:55;;;;;;;19.50;5.53;;;9.00;99.90;;;;;;5031838;28;20181;-82
2023/12/09 06:14:21;;;;;;;16.23;5.17;;;9.00;99.90;;;;;;5031407;28;20661;-81
2023/12/09 06:16:47;;;;;;;20.20;5.20;;;9.00;99.90;;;;;;5031787;28;20265;-82
2023/12/09 06:19:13;;;;;;;14.77;4.50;;;9.00;99.90;;;;;;5032993;28;20172;-82
2023/12/09 06:21:38;;;;;;;17.43;4.73;;;9.00;99.90;;;;;;5032052;28;20268;-81
2023/12/09 06:24:04;;;;;;;12.90;4.67;;;9.00;99.90;;;;;;5032060;28;20189;-81
2023/12/09 06:26:30;;;;;;;14.60;4.63;;;9.00;99.90;;;;;;5031737;28;20217;-82
2023/12/09 06:28:56;;;;;;;13.37;4.40;;;9.00;99.90;;;;;;5031980;28;20173;-81
2023/12/09 06:31:22;;;;;;;15.23;5.40;;;9.00;99.90;;;;;;5032638;28;20240;-81
2023/12/09 06:33:47;;;;;;;13.77;3.87;;;9.00;99.90;;;;;;5031705;28;20172;-82
2023/12/09 06:36:13;;;;;;;12.00;4.10;;;9.10;99.90;;;;;;5031482;28;20173;-82
2023/12/09 06:38:40;;;;;;;15.47;3.87;;;9.00;99.90;;;;;;5030762;28;20605;-82
2023/12/09 06:41:06;;;;;;;15.30;4.10;;;9.10;99.90;;;;;;5032112;28;20252;-82
2023/12/09 06:43:32;;;;;;;16.33;4.57;;;9.10;99.90;;;;;;5031699;28;20541;-81
2023/12/09 06:46:00;;;;;;;12.30;3.67;;;9.10;99.90;;;;;;5032907;28;20263;-83
2023/12/09 06:48:26;;;;;;;16.27;3.87;;;9.10;99.90;;;;;;5031090;28;20327;-82
2023/12/09 06:50:51;;;;;;;16.70;4.73;;;9.10;99.90;;;;;;5030865;28;20553;-82
2023/12/09 06:53:17;;;;;;;15.73;4.27;;;9.10;99.90;;;;;;5031043;28;20641;-82
2023/12/09 06:55:43;;;;;;;15.97;5.03;;;9.10;99.90;;;;;;5031028;28;20914;-82
2023/12/09 06:58:08;;;;;;;15.17;5.03;;;9.20;99.90;;;;;;5030513;28;20268;-82
2023/12/09 07:00:35;;;;;;;17.90;5.07;;;9.20;99.90;;;;;;5031989;28;20202;-82
2023/12/09 07:03:01;;;;;;;10.60;3.63;;;9.20;99.90;;;;;;5031192;28;20698;-81
2023/12/09 07:05:27;;;;;;;13.47;4.77;;;9.20;99.90;;;;;;5032398;28;20312;-81
2023/12/09 07:07:52;;;;;;;17.23;4.60;;;9.20;99.90;;;;;;5030976;28;20605;-82
2023/12/09 07:10:18;;;;;;;11.57;3.37;;;9.30;99.90;;;;;;5032537;28;20192;-82
2023/12/09 07:12:44;;;;;;;12.50;4.13;;;9.20;99.90;;;;;;5031264;28;20513;-82
2023/12/09 07:15:11;;;;;;;13.17;4.13;;;9.20;99.90;;;;;;5030726;28;20181;-82
2023/12/09 07:17:37;;;;;;;15.30;4.07;;;9.20;99.90;;;;;;5031445;28;20198;-81
2023/12/09 07:20:05;;;;;;;9.60;3.57;;;9.20;99.90;;;;;;5030422;28;20220;-81
2023/12/09 07:22:31;;;;;;;15.23;4.47;;;9.20;99.90;;;;;;5029819;28;20192;-82
2023/12/09 07:24:57;;;;;;;18.27;5.00;;;9.20;99.90;;;;;;5030840;28;20205;-82
2023/12/09 07:27:22;;;;;;;16.83;5.30;;;9.20;99.90;;;;;;5031200;28;20173;-83
2023/12/09 07:29:49;;;;;;;16.63;4.43;;;9.20;99.90;;;;;;5031280;28;20227;-83
2023/12/09 07:32:15;;;;;;;16.17;4.60;;;9.10;99.90;;;;;;5030691;28;20177;-81
2023/12/09 07:34:40;;;;;;;16.00;4.40;;;9.10;99.90;;;;;;5030190;28;20511;-82
2023/12/09 07:37:06;;;;;;;14.53;4.30;;;9.10;99.90;;;;;;5031327;28;20197;-82
2023/12/09 07:39:32;;;;;;;13.33;4.27;;;9.20;99.90;;;;;;5029815;28;20633;-82
2023/12/09 07:41:58;;;;;;;10.93;4.23;;;9.30;99.90;;;;;;5032500;28;20166;-81
2023/12/09 07:44:25;;;;;;;17.77;5.30;;;9.30;99.90;;;;;;5030361;28;20272;-81
2023/12/09 07:46:50;;;;;;;18.57;4.73;;;9.20;99.90;;;;;;5031490;28;20209;-82
2023/12/09 07:49:16;;;;;;;17.40;4.63;;;9.30;99.90;;;;;;5031635;28;20177;-82
2023/12/09 07:51:42;;;;;;;13.07;4.10;;;9.20;99.90;;;;;;5031081;28;20181;-83
2023/12/09 07:54:08;;;;;;;15.83;4.83;;;9.20;99.90;;;;;;5030016;28;20215;-82
2023/12/09 07:56:33;;;;;;;13.93;4.73;;;9.30;99.90;;;;;;5030146;28;20538;-83
2023/12/09 07:58:59;;;;;;;13.33;4.47;;;9.30;99.90;;;;;;5032235;28;20209;-84
2023/12/09 08:01:29;;;;;;;14.40;4.60;;;9.30;99.90;;;;;;5030459;28;20192;-81
2023/12/09 08:03:55;;;;;;;15.00;4.00;;;9.40;99.90;;;;;;5030078;28;20166;-83
2023/12/09 08:06:21;;;;;;;11.73;3.83;;;9.30;99.90;;;;;;5030438;28;20274;-83
2023/12/09 08:08:50;;;;;;;13.83;4.67;;;9.30;99.90;;;;;;5031263;28;20225;-82
2023/12/09 08:11:17;;;;;;;11.63;4.50;;;9.40;99.90;;;;;;5034091;28;20630;-83
2023/12/09 08:13:43;;;;;;;22.00;4.80;;;9.50;99.90;;;;;;5035306;28;20713;-82
2023/12/09 08:16:09;;;;;;;11.63;3.67;;;9.50;99.90;;;;;;5034311;28;20265;-83
2023/12/09 08:18:34;;;;;;;13.47;3.97;;;9.50;99.90;;;;;;5033456;28;20588;-83
2023/12/09 08:21:01;;;;;;;17.87;4.33;;;9.50;99.90;;;;;;5033275;28;20617;-82
2023/12/09 08:23:27;;;;;;;13.17;4.07;;;9.50;99.90;;;;;;5033162;28;20173;-84
2023/12/09 08:25:53;;;;;;;12.47;4.23;;;9.50;99.90;;;;;;5033048;28;20255;-84
2023/12/09 08:28:19;;;;;;;16.03;4.23;;;9.50;99.90;;;;;;5034397;28;20586;-83
2023/12/09 08:30:46;;;;;;;13.20;4.47;;;9.60;99.90;;;;;;5032931;28;20257;-84
2023/12/09 08:33:13;;;;;;;15.83;4.47;;;9.60;99.90;;;;;;5033053;28;20174;-83
2023/12/09 08:35:38;;;;;;;15.97;4.53;;;9.60;99.90;;;;;;5033160;28;20297;-83
2023/12/09 08:38:04;;;;;;;12.33;3.80;;;9.60;99.90;;;;;;5033357;28;20653;-85
2023/12/09 08:40:30;;;;;;;11.10;4.00;;;9.60;99.90;;;;;;5034061;28;20186;-84
2023/12/09 08:42:56;;;;;;;9.77;3.60;;;9.60;99.90;;;;;;5035626;28;20181;-82
2023/12/09 08:45:21;;;;;;;11.93;4.10;;;9.60;99.90;;;;;;5033031;28;20586;-83
2023/12/09 08:47:47;;;;;;;16.37;4.47;;;9.60;99.90;;;;;;5033268;28;20181;-82
2023/12/09 08:50:13;;;;;;;13.97;4.23;;;9.60;99.90;;;;;;5028676;28;20263;-79
2023/12/09 08:52:39;;;;;;;9.23;3.27;;;9.70;99.90;;;;;;5020925;28;20256;-82
2023/12/09 08:55:05;;;;;;;9.90;3.47;;;9.70;99.90;;;;;;5032605;28;20213;-81
2023/12/09 08:57:31;;;;;;;13.87;3.87;;;9.70;99.90;;;;;;5032914;28;20516;-81
2023/12/09 08:59:57;;;;;;;10.80;3.27;;;9.70;99.90;;;;;;5033195;28;20184;-82
2023/12/09 09:02:23;;;;;;;14.93;4.03;;;9.70;99.90;;;;;;5032095;28;20173;-80
2023/12/09 09:04:49;;;;;;;13.30;3.73;;;9.70;99.90;;;;;;5033972;28;20173;-80
2023/12/09 09:07:15;;;;;;;8.93;3.40;;;9.70;99.90;;;;;;5032482;28;20187;-80
2023/12/09 09:09:40;;;;;;;10.33;3.33;;;9.80;99.90;;;;;;5034177;28;20673;-80
2023/12/09 09:12:07;;;;;;;10.60;3.10;;;9.80;99.90;;;;;;5033150;28;20182;-83
2023/12/09 09:14:36;;;;;;;10.57;3.37;;;9.80;99.90;;;;;;5032677;28;20170;-82
2023/12/09 09:17:03;;;;;;;11.53;3.83;;;9.90;99.90;;;;;;5032726;28;20360;-81
2023/12/09 09:19:29;;;;;;;8.73;3.00;;;9.90;99.90;;;;;;5032447;28;20181;-81
2023/12/09 09:21:55;;;;;;;15.90;3.30;;;9.90;99.90;;;;;;5032616;28;20174;-81
2023/12/09 09:24:20;;;;;;;8.03;2.80;;;9.90;99.90;;;;;;5032511;28;20273;-82
2023/12/09 09:26:47;;;;;;;10.67;3.80;;;9.90;99.90;;;;;;5018394;28;20225;-82
2023/12/09 09:29:12;;;;;;;6.57;2.70;;;9.90;99.90;;;;;;5028890;28;20192;-80
2023/12/09 09:31:38;;;;;;;8.13;2.60;;;9.90;99.90;;;;;;5019774;28;20178;-82
2023/12/09 09:34:04;;;;;;;7.53;2.43;;;9.80;99.90;;;;;;5011943;28;20639;-83
2023/12/09 09:36:30;;;;;;;8.00;2.90;;;9.80;99.90;;;;;;5011629;28;20246;-83
2023/12/09 09:38:56;;;;;;;9.00;2.70;;;9.80;99.90;;;;;;5026434;28;20205;-82
2023/12/09 09:41:27;;;;;;;6.80;2.43;;;9.80;99.90;;;;;;5033472;28;20178;-82
2023/12/09 09:44:06;;;;;;;5.87;2.40;;;9.80;99.90;;;;;;5031073;28;20177;-81
2023/12/09 09:46:34;;;;;;;9.43;2.63;;;9.80;99.90;;;;;;5031834;28;20235;-83
2023/12/09 09:49:03;;;;;;;6.20;2.20;;;9.80;99.90;;;;;;5030974;28;20759;-81
2023/12/09 09:51:30;;;;;;;7.53;2.53;;;9.80;99.90;;;;;;5032218;28;20251;-81
2023/12/09 09:54:05;;;;;;;6.50;1.87;;;9.70;99.90;;;;;;5031518;28;20186;-83
2023/12/09 09:56:32;;;;;;;7.30;2.40;;;9.70;99.90;;;;;;5031267;28;20234;-83
2023/12/09 09:58:58;;;;;;;6.73;2.57;;;9.70;99.90;;;;;;5032084;28;20192;-85
2023/12/09 10:01:27;;;;;;;6.33;1.80;;;9.70;99.90;;;;;;5032610;28;20642;-82
2023/12/09 10:03:53;;;;;;;5.97;2.10;;;9.70;99.90;;;;;;5030606;28;20170;-83
2023/12/09 10:06:19;;;;;;;4.47;2.07;;;9.70;99.90;;;;;;5031416;28;20602;-82
2023/12/09 10:08:45;;;;;;;6.33;1.80;;;9.70;99.90;;;;;;5031498;28;20193;-82
2023/12/09 10:11:11;;;;;;;5.13;1.83;;;9.70;99.90;;;;;;5029866;28;20177;-83
2023/12/09 10:13:37;;;;;;;3.33;1.70;;;9.70;99.90;;;;;;5018993;28;20533;-83
2023/12/09 10:16:03;;;;;;;6.20;2.03;;;9.70;99.90;;;;;;5022353;28;20205;-82
2023/12/09 10:18:30;;;;;;;4.47;1.57;;;9.70;99.90;;;;;;5024001;28;20621;-83
2023/12/09 10:20:55;;;;;;;3.50;1.37;;;9.70;99.90;;;;;;5031295;28;20638;-83
2023/12/09 10:23:22;;;;;;;3.23;1.57;;;9.70;99.90;;;;;;5031309;28;20200;-83
2023/12/09 10:25:48;;;;;;;5.17;1.63;;;9.60;99.90;;;;;;5031854;28;20580;-83
2023/12/09 10:28:14;;;;;;;5.17;1.90;;;9.70;99.90;;;;;;5031308;28;20174;-83
2023/12/09 10:30:41;;;;;;;3.50;1.93;;;9.70;99.90;;;;;;5029989;28;20243;-82
2023/12/09 10:33:10;;;;;;;6.07;2.03;;;9.60;99.90;;;;;;5031656;28;20614;-83
2023/12/09 10:35:35;;;;;;;3.63;2.00;;;9.70;99.90;;;;;;5031289;28;20602;-83
2023/12/09 10:38:04;;;;;;;4.33;1.87;;;9.70;99.90;;;;;;5030040;28;20204;-82
2023/12/09 10:40:31;;;;;;;3.17;1.77;;;9.80;99.90;;;;;;5031630;28;20181;-82
2023/12/09 10:42:57;;;;;;;4.63;1.80;;;9.80;99.90;;;;;;5032388;28;20275;-82
2023/12/09 10:45:23;;;;;;;5.00;1.80;;;9.70;99.90;;;;;;5032601;28;20652;-83
2023/12/09 10:47:49;;;;;;;3.67;1.77;;;9.70;99.90;;;;;;5030944;28;20181;-82
2023/12/09 10:50:15;;;;;;;5.60;1.87;;;9.80;99.90;;;;;;5030027;28;20200;-82
2023/12/09 10:52:41;;;;;;;4.83;1.80;;;9.90;99.90;;;;;;5030949;28;20304;-82
2023/12/09 10:55:07;;;;;;;3.27;1.57;;;9.90;99.90;;;;;;5030999;28;20653;-84
2023/12/09 10:57:33;;;;;;;6.00;2.00;;;9.90;99.90;;;;;;5030379;28;20169;-85
2023/12/09 11:00:01;;;;;;;5.50;1.70;;;9.90;99.90;;;;;;5030622;28;20178;-83
2023/12/09 11:02:28;;;;;;;3.97;1.67;;;9.90;99.90;;;;;;5032196;28;20290;-82
2023/12/09 11:04:54;;;;;;;2.57;1.30;;;9.90;99.90;;;;;;5030185;28;20169;-84
2023/12/09 11:07:20;;;;;;;2.00;1.10;;;10.00;99.90;;;;;;5030688;28;20292;-83
2023/12/09 11:09:47;;;;;;;1.67;1.00;;;9.90;99.90;;;;;;5031137;28;20723;-83
2023/12/09 11:12:30;;;;;;;3.73;1.30;;;9.90;99.90;;;;;;5030716;28;20173;-84
2023/12/09 11:15:07;;;;;;;3.60;1.87;;;9.90;99.90;;;;;;5030224;28;20227;-82
2023/12/09 11:17:37;;;;;;;3.90;1.30;;;9.90;99.90;;;;;;5029541;28;20783;-82
2023/12/09 11:20:09;;;;;;;3.30;1.20;;;9.90;99.90;;;;;;5028613;28;20173;-83
2023/12/09 11:22:40;;;;;;;2.97;1.37;;;9.90;99.90;;;;;;5026676;28;20239;-83
2023/12/09 11:25:08;;;;;;;2.70;1.30;;;9.80;99.90;;;;;;5030545;28;20217;-83
2023/12/09 11:27:36;;;;;;;1.80;1.10;;;9.70;99.90;;;;;;5030110;28;20206;-83
2023/12/09 11:30:02;;;;;;;2.57;1.17;;;9.70;99.90;;;;;;5024046;28;20209;-84
2023/12/09 11:32:29;;;;;;;5.03;1.70;;;9.80;99.90;;;;;;5019881;28;20232;-82
2023/12/09 11:34:59;;;;;;;3.30;1.40;;;9.80;99.90;;;;;;5018301;28;20185;-83
2023/12/09 11:37:29;;;;;;;3.60;1.20;;;9.80;99.90;;;;;;5010751;28;20597;-81
2023/12/09 11:39:56;;;;;;;5.60;1.53;;;9.70;99.90;;;;;;5024730;28;20181;-82
2023/12/09 11:42:22;;;;;;;4.97;1.43;;;9.70;99.90;;;;;;5029567;28;20174;-80
2023/12/09 11:44:48;;;;;;;5.13;1.40;;;9.70;99.90;;;;;;5029505;28;20322;-80
2023/12/09 11:47:14;;;;;;;3.97;1.43;;;9.60;99.90;;;;;;5029974;28;20190;-82
2023/12/09 11:49:41;;;;;;;2.10;1.30;;;9.60;99.90;;;;;;5029680;28;20243;-82
2023/12/09 11:52:08;;;;;;;2.23;1.10;;;9.70;99.90;;;;;;5029585;28;20181;-83
2023/12/09 11:54:34;;;;;;;3.13;1.30;;;9.80;99.90;;;;;;5029024;28;20180;-83
2023/12/09 11:57:00;;;;;;;2.77;1.37;;;9.80;99.90;;;;;;5030471;28;20309;-83
2023/12/09 11:59:25;;;;;;;2.67;1.07;;;9.80;99.90;;;;;;5030744;28;20177;-83
2023/12/09 12:01:51;;;;;;;2.70;1.30;;;9.80;99.90;;;;;;5030349;28;20174;-82
2023/12/09 12:04:17;;;;;;;2.80;1.50;;;9.70;99.90;;;;;;5030036;28;20553;-85
2023/12/09 12:06:42;;;;;;;5.80;2.70;;;9.70;99.90;;;;;;5029813;28;20213;-84
2023/12/09 12:09:09;;;;;;;4.20;2.33;;;9.80;99.90;;;;;;5029911;28;20216;-84
2023/12/09 12:11:35;;;;;;;3.50;1.90;;;9.80;99.90;;;;;;5031857;28;20178;-85
2023/12/09 12:14:01;;;;;;;2.20;1.40;;;9.80;99.90;;;;;;5030788;28;20227;-86
2023/12/09 12:16:27;;;;;;;2.60;1.30;;;9.80;99.90;;;;;;5030124;28;20170;-85
2023/12/09 12:18:55;;;;;;;3.60;1.50;;;9.70;99.90;;;;;;5030205;28;20178;-86
2023/12/09 12:21:24;;;;;;;3.23;1.57;;;9.70;99.90;;;;;;5030986;28;20278;-85
2023/12/09 12:23:54;;;;;;;1.57;1.07;;;9.70;99.90;;;;;;5033364;28;20169;-84
2023/12/09 12:26:21;;;;;;;2.20;1.23;;;9.60;99.90;;;;;;5032460;28;20245;-85
2023/12/09 12:28:48;;;;;;;3.37;1.83;;;9.50;99.90;;;;;;5030197;28;20643;-85
2023/12/09 12:31:15;;;;;;;2.53;1.10;;;9.50;99.90;;;;;;5030584;28;20178;-86
2023/12/09 12:33:41;;;;;;;3.20;1.33;;;9.50;99.90;;;;;;5029813;28;20170;-84
2023/12/09 12:36:07;;;;;;;6.60;2.93;;;9.50;99.90;;;;;;5029160;28;20546;-82
2023/12/09 12:38:33;;;;;;;2.83;1.30;;;9.50;99.90;;;;;;5029916;28;20169;-82
2023/12/09 12:40:59;;;;;;;3.17;1.07;;;9.40;99.90;;;;;;5029889;28;20181;-83
2023/12/09 12:43:30;;;;;;;3.27;1.43;;;9.40;99.90;;;;;;5029309;28;20657;-83
2023/12/09 12:45:58;;;;;;;1.80;1.00;;;9.40;99.90;;;;;;5030005;28;20297;-81